Flight Track Log - Related Links

Times and Time Zones

All times are in EST time to prevent confusion due to time zone crossing. See the SWA508 flight status page for this flight to view local times or setup timezone preferences in your user account.

Time Position Orientation Groundspeed Altitude Reporting Facility
EST Latitude Longitude Course Direction KTS MPH feet Rate Location/Type
Thu 05:44:38 PM 37.7333 -122.2500 288° West 167 192 1,200  Level Northern TRACON
Thu 05:45:38 PM 37.7500 -122.3167 288° West 215 247 3,300 2,333 Climbing Northern TRACON
Thu 05:46:44 PM 37.7167 -122.3833 238° Southwest 252 290 6,100 2,280 Climbing Northern TRACON
Thu 05:47:18 PM 37.6811 -122.3906 189° South 258 297 7,100 2,274 Climbing Oakland Center
Thu 05:48:19 PM 37.5975 -122.4156 193° South 302 348 9,700 2,410 Climbing Oakland Center
Thu 05:49:20 PM 37.4969 -122.4106 178° South 360 414 12,000 2,488 Climbing Oakland Center
Thu 05:50:22 PM 37.3731 -122.3644 164° South 398 458 14,800 2,537 Climbing Oakland Center
Thu 05:51:23 PM 37.2875 -122.2639 137° Southeast 420 483 17,200 2,146 Climbing Oakland Center
Thu 05:52:25 PM 37.1989 -122.1622 138° Southeast 431 496 19,200 1,951 Climbing Oakland Center
Thu 05:53:26 PM 37.1047 -122.0569 138° Southeast 450 518 21,200 1,869 Climbing Oakland Center
Thu 05:54:27 PM 37.0086 -121.9489 138° Southeast 465 535 23,000 1,659 Climbing Oakland Center
Thu 05:55:29 PM 36.9100 -121.8358 137° Southeast 479 551 24,600 1,512 Climbing Oakland Center
Thu 05:56:30 PM 36.8064 -121.7286 140° Southeast 501 577 26,100 1,415 Climbing Oakland Center
Thu 05:57:32 PM 36.7031 -121.6117 138° Southeast 504 580 27,500 1,317 Climbing Oakland Center
Thu 05:58:33 PM 36.5731 -121.4681 138° Southeast 523 602 28,800 1,366 Climbing Oakland Center
Thu 05:59:35 PM 36.4633 -121.3469 138° Southeast 530 610 30,300 1,561 Climbing Oakland Center
Thu 06:00:36 PM 36.3558 -121.2283 138° Southeast 521 600 32,000 1,328 Climbing Oakland Center
Thu 06:01:37 PM 36.2478 -121.1100 139° Southeast 521 600 33,000 488 Climbing Oakland Center
Thu 06:02:39 PM 36.1317 -121.0044 144° Southeast 532 612 33,000  Level Oakland Center
Thu 06:03:40 PM 36.0033 -120.9244 153° Southeast 520 598 33,000  Level Oakland Center
Thu 06:04:42 PM 35.8978 -120.8042 137° Southeast 517 595 33,000  Level Oakland Center
Thu 06:05:43 PM 35.7950 -120.6814 136° Southeast 518 596 33,000  Level Oakland Center
Thu 06:06:45 PM 35.6708 -120.5347 136° Southeast 517 595 33,000  Level Oakland Center
Thu 06:07:46 PM 35.5661 -120.4128 137° Southeast 516 594 33,000  Level Oakland Center
Thu 06:08:47 PM 35.4650 -120.2967 137° Southeast 514 592 33,000  Level Oakland Center
Thu 06:09:49 PM 35.3517 -120.1622 136° Southeast 526 605 33,000  Level Oakland Center
Thu 06:10:50 PM 35.2436 -120.0383 137° Southeast 528 608 33,000 -1,171 Level Oakland Center
Thu 06:11:52 PM 35.1378 -119.9175 137° Southeast 521 600 30,600 -2,976 Descending Oakland Center
Thu 06:12:53 PM 35.0369 -119.7911 134° Southeast 519 597 26,900 -3,268 Descending Oakland Center
Thu 06:13:55 PM 34.9414 -119.6608 132° Southeast 519 597 23,900 -2,780 Descending Oakland Center
Thu 06:14:56 PM 34.8494 -119.5383 132° Southeast 501 577 21,200 -2,656 Descending Oakland Center
Thu 06:15:57 PM 34.7628 -119.4208 132° Southeast 477 549 18,500 -2,537 Descending Oakland Center
Thu 06:16:59 PM 34.6794 -119.3075 132° Southeast 459 528 16,000 -2,265 Descending Oakland Center
Thu 06:17:35 PM 34.6475 -119.2631 131° Southeast 450 518 14,800 -2,545 Descending Los Center
Thu 06:18:38 PM 34.5506 -119.1400 134° Southeast 416 479 11,800 -1,824 Descending Los Center
Thu 06:19:40 PM 34.4686 -119.0297 132° Southeast 356 410 11,000 -484 Descending Los Center
Thu 06:20:42 PM 34.4094 -118.9489 132° Southeast 320 368 10,800 -871 Descending Los Center
Thu 06:21:44 PM 34.3489 -118.8733 134° Southeast 313 360 9,200 -1,452 Descending Los Center
Thu 06:22:46 PM 34.2833 -118.8161 144° Southeast 296 341 7,800 -1,355 Descending Los Center
Thu 06:23:48 PM 34.2500 -118.7325 116° Southeast 278 320 6,400 -1,016 Descending Los Center
Thu 06:24:50 PM 34.2261 -118.6669 114° Southeast 271 312 5,700 -864 Descending Los Center
Thu 06:25:53 PM 34.2094 -118.5550 100° East 247 284 4,600 -823 Descending Los Center
Thu 06:26:54 PM 34.2042 -118.5156 99° East 199 229 4,000 -1,161 Descending Los Center
Thu 06:27:57 PM 34.1997 -118.4572 95° East 159 183 2,200 -1,248 Descending Los Center
Thu 06:28:59 PM 34.1989 -118.4092 91° East 149 171 1,400 -529 Descending Los Center
Thu 06:30:13 PM 34.1989 -118.3550 90° East 148 170 1,000 -324 Descending Los Center

Login

Don't have an account? Register now (free) for customized features, flight alerts, and more!